Terminal Aerodrome Forecast
Issued by NWS

Home | Current Version | Previous Version | Text Only | Print | Product List | Glossary On
Versions: 1 2 3 4 5 6 7 8 9 10 11 12 13 14 15 16 17 18 19 20 21 22 23 24 25 26 27
000
FTUS41 KBGM 161400 AAB
TAFITH
TAF AMD
KITH 161456Z 1615/1712 VRB04KT P6SM SCT008 OVC018
      TEMPO 1615/1616 BKN008 OVC018
     FM161600 32009KT P6SM BKN040
     FM162200 32007KT P6SM SCT050
     FM170100 VRB03KT P6SM SCT040
     FM170500 VRB03KT 5SM BR SKC
     FM170700 VRB03KT 1/2SM FG VV001=

USA.gov is the U.S. government's official web portal to all federal, state and local government web resources and services.